Time;durP1;ratioP1;P1;durP2;ratioP2;P2;SDS_P1;SDS_P2;PMS_P1;PMS_P2;Temp;Humidity;BMP_temperature;BMP_pressure;BME280_temperature;BME280_humidity;BME280_pressure;Samples;Min_cycle;Max_cycle;Signal;HPM_P1;HPM_P2
2022/05/12 00:02:03;;;;;;;4.50;2.90;;;;;;;20.18;42.54;95464.81;4999849;28;20675;-77
2022/05/12 00:04:30;;;;;;;4.55;2.80;;;;;;;20.11;42.90;95475.38;5015598;28;20675;-76
2022/05/12 00:06:55;;;;;;;4.13;2.85;;;;;;;20.02;42.98;95476.63;5015960;28;20643;-76
2022/05/12 00:09:21;;;;;;;5.57;3.13;;;;;;;19.99;43.36;95477.06;5015855;28;20235;-76
2022/05/12 00:11:46;;;;;;;6.90;3.20;;;;;;;19.95;43.06;95481.09;5003808;28;20207;-76
2022/05/12 00:14:12;;;;;;;3.85;3.13;;;;;;;19.88;43.82;95483.78;4979457;28;20187;-76
2022/05/12 00:16:37;;;;;;;8.05;2.75;;;;;;;19.79;44.15;95485.84;5013562;28;20242;-77
2022/05/12 00:19:03;;;;;;;5.50;2.80;;;;;;;19.78;43.85;95493.91;4979970;28;20179;-77
2022/05/12 00:21:28;;;;;;;3.42;2.58;;;;;;;19.77;44.09;95498.38;4996203;28;20300;-77
2022/05/12 00:23:56;;;;;;;5.28;3.30;;;;;;;19.80;44.41;95507.72;4998050;28;20738;-77
2022/05/12 00:26:26;;;;;;;3.22;2.40;;;;;;;19.77;44.87;95494.94;4984467;28;20203;-77
2022/05/12 00:28:51;;;;;;;8.05;2.70;;;;;;;19.79;44.39;95498.19;4984377;28;20194;-77
2022/05/12 00:31:16;;;;;;;4.53;2.85;;;;;;;19.80;44.67;95503.25;5017673;28;20191;-76
2022/05/12 00:33:42;;;;;;;4.72;2.85;;;;;;;19.78;45.02;95499.19;4998950;28;20214;-76
2022/05/12 00:36:07;;;;;;;6.75;2.90;;;;;;;19.76;45.58;95504.66;5016355;28;20194;-77
2022/05/12 00:38:32;;;;;;;6.38;2.70;;;;;;;19.71;45.23;95506.31;4999588;28;20187;-77
2022/05/12 00:40:58;;;;;;;2.88;2.53;;;;;;;19.67;45.84;95510.34;4999133;28;20183;-77
2022/05/12 00:43:47;;;;;;;5.60;2.78;;;;;;;19.60;45.78;95513.00;4999802;28;20179;-77
2022/05/12 00:46:18;;;;;;;5.18;3.40;;;;;;;19.52;46.66;95508.75;4983927;28;20290;-76
2022/05/12 00:48:45;;;;;;;5.35;2.85;;;;;;;19.46;47.28;95511.38;5000145;28;20641;-76
2022/05/12 00:51:13;;;;;;;3.85;2.88;;;;;;;19.46;48.17;95514.00;5000051;28;20275;-76
2022/05/12 00:53:39;;;;;;;7.75;3.55;;;;;;;19.37;48.68;95523.94;4984393;28;20211;-77
2022/05/12 00:56:06;;;;;;;6.47;3.35;;;;;;;19.32;49.18;95528.97;4983432;28;20202;-77
2022/05/12 00:58:33;;;;;;;4.75;3.40;;;;;;;19.29;50.10;95529.38;4999478;28;20270;-77
2022/05/12 01:01:00;;;;;;;5.97;3.47;;;;;;;19.32;50.24;95523.72;4999742;28;20198;-77
2022/05/12 01:03:26;;;;;;;4.63;3.10;;;;;;;19.24;50.38;95527.34;5017509;28;20641;-76
2022/05/12 01:05:52;;;;;;;6.75;3.13;;;;;;;19.18;50.65;95530.81;4998480;28;20215;-76
2022/05/12 01:08:19;;;;;;;4.72;2.90;;;;;;;19.13;51.11;95527.97;5017803;28;20655;-77
2022/05/12 01:10:50;;;;;;;4.78;3.40;;;;;;;19.03;51.84;95529.38;4999684;28;20179;-76
2022/05/12 01:13:16;;;;;;;5.22;3.25;;;;;;;18.95;52.20;95528.53;4999947;28;20691;-77
2022/05/12 01:15:52;;;;;;;5.60;2.83;;;;;;;18.86;52.36;95529.72;4983362;28;20195;-77
2022/05/12 01:18:18;;;;;;;5.72;2.95;;;;;;;18.81;52.69;95531.34;4999849;28;20171;-77
2022/05/12 01:20:45;;;;;;;5.20;3.55;;;;;;;18.75;53.37;95540.84;5000569;28;20175;-77
2022/05/12 01:23:32;;;;;;;6.10;3.17;;;;;;;18.67;53.56;95541.03;5000465;28;20645;-77
2022/05/12 01:26:04;;;;;;;4.97;3.58;;;;;;;18.68;54.05;95551.34;4991176;28;20209;-76
2022/05/12 01:28:29;;;;;;;5.88;3.25;;;;;;;18.58;54.28;95557.97;5019044;28;20170;-76
2022/05/12 01:30:55;;;;;;;5.63;3.17;;;;;;;18.57;54.14;95556.34;5002765;28;20582;-76
2022/05/12 01:33:21;;;;;;;3.58;3.28;;;;;;;18.46;54.34;95559.50;5019404;28;20280;-77
2022/05/12 01:35:46;;;;;;;4.45;3.25;;;;;;;18.47;54.00;95554.06;5017718;28;20198;-76
2022/05/12 01:38:13;;;;;;;3.42;2.97;;;;;;;18.48;54.12;95566.22;5018149;28;20201;-76
2022/05/12 01:40:39;;;;;;;4.18;2.80;;;;;;;18.49;53.76;95567.03;5017849;28;20301;-77
2022/05/12 01:43:05;;;;;;;3.78;2.95;;;;;;;18.37;53.68;95570.19;5017900;28;20182;-76
2022/05/12 01:45:30;;;;;;;4.78;2.67;;;;;;;18.42;53.34;95568.81;5016252;28;20702;-76
2022/05/12 01:47:55;;;;;;;5.45;2.53;;;;;;;18.42;53.08;95564.34;5016411;28;20189;-77
2022/05/12 01:50:21;;;;;;;5.10;2.80;;;;;;;18.39;53.08;95564.75;5016954;28;20183;-77
2022/05/12 01:52:46;;;;;;;3.95;2.40;;;;;;;18.32;52.71;95574.44;5016338;28;20623;-76
2022/05/12 01:55:19;;;;;;;8.48;2.67;;;;;;;18.34;52.84;95582.91;5016109;28;20194;-76
2022/05/12 01:57:44;;;;;;;2.78;2.58;;;;;;;18.28;52.93;95575.81;5000810;28;20264;-76
2022/05/12 02:00:12;;;;;;;5.22;2.75;;;;;;;18.26;53.01;95594.41;5017239;28;20648;-76
2022/05/12 02:02:41;;;;;;;3.53;2.40;;;;;;;18.19;53.62;95598.00;5017233;28;20182;-76
2022/05/12 02:05:09;;;;;;;6.68;2.53;;;;;;;18.14;53.79;95601.22;5016618;28;20252;-76
2022/05/12 02:07:36;;;;;;;6.30;2.20;;;;;;;18.14;54.15;95590.72;5014227;28;20647;-76
2022/05/12 02:10:03;;;;;;;2.85;2.30;;;;;;;18.08;54.41;95599.34;5013982;28;20179;-76
2022/05/12 02:12:29;;;;;;;3.08;2.22;;;;;;;18.02;54.86;95606.22;5033581;28;20203;-76
2022/05/12 02:14:54;;;;;;;2.72;2.20;;;;;;;18.08;55.09;95609.88;5033677;28;20200;-77
2022/05/12 02:17:19;;;;;;;3.42;2.70;;;;;;;17.97;55.60;95607.78;5034066;28;20179;-77
2022/05/12 02:19:44;;;;;;;5.07;2.20;;;;;;;17.92;55.81;95612.78;5016707;28;20177;-77
2022/05/12 02:22:10;;;;;;;2.75;2.08;;;;;;;17.89;56.50;95610.53;5016761;28;20167;-77
2022/05/12 02:24:35;;;;;;;6.25;2.30;;;;;;;17.79;57.13;95613.50;5034070;28;20198;-76
2022/05/12 02:27:01;;;;;;;3.50;2.30;;;;;;;17.74;57.41;95610.63;5016970;28;20613;-76
2022/05/12 02:29:26;;;;;;;2.95;2.28;;;;;;;17.78;57.18;95614.50;5034763;28;20182;-76
2022/05/12 02:31:52;;;;;;;3.60;2.40;;;;;;;17.64;57.81;95618.81;5013698;28;20207;-76
2022/05/12 02:34:18;;;;;;;4.72;2.15;;;;;;;17.72;57.81;95618.69;5015214;28;20174;-77
2022/05/12 02:36:59;;;;;;;3.70;2.40;;;;;;;17.50;58.53;95620.53;5031955;28;20244;-75
2022/05/12 02:39:26;;;;;;;5.20;2.30;;;;;;;17.50;58.37;95620.53;4999351;28;20178;-76
2022/05/12 02:41:51;;;;;;;3.75;2.38;;;;;;;17.49;58.15;95628.56;5013337;28;20189;-75
2022/05/12 02:44:16;;;;;;;4.93;2.53;;;;;;;17.47;58.17;95631.38;5031303;28;20174;-76
2022/05/12 02:46:41;;;;;;;3.97;2.40;;;;;;;17.36;58.78;95631.06;5001099;28;20705;-77
2022/05/12 02:49:09;;;;;;;3.13;2.17;;;;;;;17.40;58.68;95634.94;5034706;28;20186;-77
2022/05/12 02:51:34;;;;;;;4.05;1.98;;;;;;;17.36;58.50;95637.13;5016875;28;20175;-76
2022/05/12 02:53:59;;;;;;;3.80;1.90;;;;;;;17.25;59.10;95643.69;5015669;28;20189;-76
2022/05/12 02:56:26;;;;;;;2.13;1.83;;;;;;;17.20;59.31;95646.06;5032975;28;20198;-76
2022/05/12 02:58:51;;;;;;;1.90;1.70;;;;;;;17.18;59.19;95645.44;5016553;28;20202;-76
2022/05/12 03:01:16;;;;;;;3.78;2.17;;;;;;;17.17;59.29;95641.19;5017043;28;20532;-76
2022/05/12 03:03:41;;;;;;;4.80;1.90;;;;;;;17.17;59.27;95641.19;5000028;28;20214;-77
2022/05/12 03:06:07;;;;;;;2.47;1.60;;;;;;;17.12;59.50;95654.03;5016700;28;20200;-76
2022/05/12 03:08:32;;;;;;;3.22;1.63;;;;;;;17.18;59.33;95645.44;5015445;28;20174;-76
2022/05/12 03:10:58;;;;;;;1.98;1.67;;;;;;;17.15;59.59;95650.25;5015750;28;20175;-77
2022/05/12 03:13:23;;;;;;;3.15;1.83;;;;;;;17.13;60.30;95652.22;5016140;28;20202;-76
2022/05/12 03:15:48;;;;;;;5.00;1.90;;;;;;;16.96;60.54;95654.25;4998982;28;20202;-76
2022/05/12 03:18:14;;;;;;;2.92;2.10;;;;;;;16.92;60.85;95659.06;5016590;28;20194;-76
2022/05/12 03:20:39;;;;;;;4.90;1.80;;;;;;;16.91;60.96;95662.69;5016586;28;20178;-77
2022/05/12 03:23:05;;;;;;;1.75;1.48;;;;;;;16.93;60.69;95662.50;5033846;28;20178;-75
2022/05/12 03:25:31;;;;;;;2.60;1.80;;;;;;;16.91;61.19;95662.69;5015337;28;20206;-77
2022/05/12 03:27:57;;;;;;;2.65;1.58;;;;;;;16.83;61.71;95662.78;4999616;28;20189;-76
2022/05/12 03:30:24;;;;;;;2.92;1.60;;;;;;;16.81;61.74;95666.59;5003286;28;20179;-77
2022/05/12 03:32:49;;;;;;;2.28;1.90;;;;;;;16.75;62.20;95662.09;5035885;28;20203;-76
2022/05/12 03:35:15;;;;;;;3.00;1.67;;;;;;;16.71;62.33;95661.66;5019448;28;20191;-77
2022/05/12 03:37:41;;;;;;;4.25;2.47;;;;;;;16.54;63.31;95661.00;5020790;28;20171;-77
2022/05/12 03:40:07;;;;;;;2.67;1.73;;;;;;;16.52;63.27;95675.25;5003998;28;20232;-76
2022/05/12 03:42:32;;;;;;;2.17;1.70;;;;;;;16.60;63.17;95668.09;5004652;28;20182;-77
2022/05/12 03:44:59;;;;;;;2.55;1.90;;;;;;;16.50;63.95;95682.50;5003504;28;20203;-77
2022/05/12 03:47:30;;;;;;;5.18;2.00;;;;;;;16.53;63.42;95688.19;5021161;28;20170;-77
2022/05/12 03:50:00;;;;;;;3.20;1.92;;;;;;;16.43;64.21;95682.38;5054244;28;20205;-76
2022/05/12 03:52:25;;;;;;;2.38;1.90;;;;;;;16.39;64.27;95687.19;5020849;28;20213;-75
2022/05/12 03:54:51;;;;;;;2.70;1.90;;;;;;;16.34;64.93;95694.78;5027437;28;20258;-76
2022/05/12 03:57:17;;;;;;;3.97;1.90;;;;;;;16.38;64.78;95690.81;5046170;28;20178;-77
2022/05/12 03:59:43;;;;;;;5.60;2.22;;;;;;;16.39;64.71;95692.44;5042138;28;20178;-76
2022/05/12 04:02:10;;;;;;;3.63;2.10;;;;;;;16.36;64.66;95705.91;5017663;28;20177;-76
2022/05/12 04:04:35;;;;;;;4.03;2.15;;;;;;;16.47;64.43;95702.03;5033943;28;20177;-76
2022/05/12 04:07:02;;;;;;;3.45;2.10;;;;;;;16.49;64.59;95707.88;5016722;28;20174;-76
2022/05/12 04:09:27;;;;;;;2.72;2.00;;;;;;;16.62;63.88;95710.72;5016973;28;20316;-75
2022/05/12 04:11:53;;;;;;;1.88;1.52;;;;;;;16.60;64.33;95709.25;5000263;28;20297;-76
2022/05/12 04:14:18;;;;;;;3.25;1.70;;;;;;;16.66;63.91;95709.34;5015735;28;20182;-76
2022/05/12 04:16:44;;;;;;;3.03;1.90;;;;;;;16.65;63.75;95718.19;5016007;28;20664;-76
2022/05/12 04:19:11;;;;;;;7.93;2.08;;;;;;;16.76;63.61;95724.03;5015852;28;20174;-76
2022/05/12 04:21:37;;;;;;;3.90;2.20;;;;;;;16.76;63.63;95718.78;5007266;28;20304;-75
2022/05/12 04:24:04;;;;;;;2.42;2.22;;;;;;;16.73;64.03;95727.81;5028077;28;20216;-76
2022/05/12 04:26:29;;;;;;;2.15;1.88;;;;;;;16.67;63.90;95734.56;5029420;28;20756;-75
2022/05/12 04:28:54;;;;;;;6.43;2.00;;;;;;;16.77;64.22;95736.13;5014902;28;20179;-76
2022/05/12 04:31:20;;;;;;;2.92;1.90;;;;;;;16.68;64.32;95740.63;5014501;28;20200;-76
2022/05/12 04:36:29;;;;;;;2.67;2.10;;;;;;;16.98;63.44;95750.16;5017670;28;20268;-76
2022/05/12 04:38:54;;;;;;;3.97;2.17;;;;;;;16.93;63.47;95757.75;5014976;28;20175;-76
2022/05/12 04:41:20;;;;;;;2.42;1.67;;;;;;;17.20;62.83;95758.91;5031321;28;20249;-76
2022/05/12 04:43:45;;;;;;;4.63;1.95;;;;;;;18.58;58.07;95760.47;4997194;28;20258;-76
2022/05/12 04:46:10;;;;;;;4.28;1.80;;;;;;;20.08;53.39;95761.31;5014292;28;20186;-76
2022/05/12 04:48:37;;;;;;;2.28;1.80;;;;;;;21.10;49.72;95764.50;5032210;28;20178;-76
2022/05/12 04:51:03;;;;;;;3.60;2.03;;;;;;;21.84;47.84;95765.84;5014451;28;20209;-77
2022/05/12 04:53:29;;;;;;;1.83;1.73;;;;;;;22.79;45.73;95780.63;4995364;28;20239;-76
2022/05/12 04:55:54;;;;;;;2.78;1.25;;;;;;;23.27;44.51;95779.13;5011214;28;20300;-76
2022/05/12 04:58:19;;;;;;;4.13;1.50;;;;;;;23.31;43.36;95778.47;5011919;28;20179;-76
2022/05/12 05:00:45;;;;;;;2.60;1.25;;;;;;;23.39;43.30;95786.13;5011938;28;20675;-77
2022/05/12 05:03:11;;;;;;;3.72;1.60;;;;;;;24.00;42.35;95787.81;5012165;28;20195;-79
2022/05/12 05:05:37;;;;;;;1.95;1.40;;;;;;;24.33;41.04;95786.56;5010220;28;20203;-76
2022/05/12 05:08:03;;;;;;;1.90;1.55;;;;;;;24.99;39.44;95800.56;4998325;28;20206;-76
2022/05/12 05:10:28;;;;;;;3.42;1.20;;;;;;;25.74;38.64;95808.59;5015521;28;20183;-77
2022/05/12 05:12:54;;;;;;;3.95;1.40;;;;;;;25.23;39.28;95812.84;5032865;28;20206;-76
2022/05/12 05:15:20;;;;;;;2.53;1.20;;;;;;;24.77;40.05;95817.09;4997938;28;20206;-76
2022/05/12 05:17:46;;;;;;;2.75;1.50;;;;;;;24.85;40.07;95821.25;4998879;28;20201;-77
2022/05/12 05:20:16;;;;;;;3.63;1.25;;;;;;;24.74;40.23;95824.72;4996107;28;20219;-76
2022/05/12 05:22:42;;;;;;;3.65;1.40;;;;;;;25.26;39.32;95832.81;5013325;28;20237;-76
2022/05/12 05:25:07;;;;;;;3.67;1.50;;;;;;;25.14;39.40;95831.00;5014565;28;20516;-77
2022/05/12 05:27:33;;;;;;;3.38;1.40;;;;;;;24.73;40.03;95834.50;5014403;28;20217;-75
2022/05/12 05:29:58;;;;;;;2.22;1.50;;;;;;;25.08;38.95;95839.06;5014650;28;20179;-75
2022/05/12 05:32:23;;;;;;;1.63;1.20;;;;;;;25.66;38.24;95854.16;5014356;28;20206;-75
2022/05/12 05:34:49;;;;;;;2.00;1.20;;;;;;;26.03;37.94;95859.97;4997272;28;20234;-75
2022/05/12 05:37:14;;;;;;;3.95;1.50;;;;;;;25.70;38.31;95861.44;5014347;28;20206;-76
2022/05/12 05:39:39;;;;;;;3.95;1.45;;;;;;;25.95;37.31;95861.16;5031215;28;20177;-76
2022/05/12 05:42:15;;;;;;;3.03;1.42;;;;;;;26.96;35.20;95860.56;4997765;28;20225;-76
2022/05/12 05:44:40;;;;;;;4.55;1.60;;;;;;;26.18;37.62;95870.94;5013670;28;20659;-76
2022/05/12 05:47:06;;;;;;;2.80;1.60;;;;;;;26.19;36.82;95869.06;5014176;28;20182;-76
2022/05/12 05:49:32;;;;;;;1.88;1.42;;;;;;;27.44;35.46;95875.16;5012266;28;20186;-76
2022/05/12 05:54:41;;;;;;;3.60;1.10;;;;;;;25.42;39.23;95874.66;5028746;28;20682;-76
2022/05/12 05:57:07;;;;;;;3.00;1.40;;;;;;;24.36;41.21;95880.81;5033471;28;20341;-75
2022/05/12 05:59:33;;;;;;;1.88;1.38;;;;;;;24.33;41.79;95882.09;5032207;28;20196;-76
2022/05/12 06:01:58;;;;;;;3.22;1.48;;;;;;;24.65;41.18;95884.47;5036073;28;20611;-76
2022/05/12 06:04:23;;;;;;;3.53;2.55;;;;;;;25.41;39.50;95888.97;5017833;28;20235;-76
2022/05/12 06:06:49;;;;;;;2.03;1.70;;;;;;;24.17;42.31;95888.81;5044844;28;20632;-76
2022/05/12 06:09:14;;;;;;;5.95;1.67;;;;;;;23.79;43.22;95901.53;5022130;28;20182;-76
2022/05/12 06:11:42;;;;;;;2.97;1.60;;;;;;;22.39;46.37;95899.19;5044690;28;20231;-76
2022/05/12 06:14:08;;;;;;;2.63;1.70;;;;;;;21.82;47.86;95894.75;5030645;28;20186;-76
2022/05/12 06:16:33;;;;;;;4.60;2.60;;;;;;;21.19;49.73;95898.72;5021149;28;20669;-76
2022/05/12 06:18:59;;;;;;;2.90;1.70;;;;;;;20.16;53.38;95907.16;5041097;28;20198;-77
2022/05/12 06:21:24;;;;;;;5.88;2.00;;;;;;;19.75;54.53;95906.19;5026122;28;20220;-76
2022/05/12 06:23:49;;;;;;;6.35;1.60;;;;;;;19.46;56.01;95901.94;5033706;28;20545;-77
2022/05/12 06:26:15;;;;;;;6.47;1.80;;;;;;;19.11;57.63;95903.75;5042469;28;20589;-75
2022/05/12 06:28:46;;;;;;;4.07;1.40;;;;;;;19.23;57.20;95910.09;5026445;28;20185;-76
2022/05/12 06:31:24;;;;;;;7.15;2.45;;;;;;;19.25;57.22;95910.72;5041887;28;20716;-75
2022/05/12 06:33:49;;;;;;;3.30;1.63;;;;;;;19.01;57.96;95918.25;5033365;28;20217;-75
2022/05/12 06:36:15;;;;;;;2.13;1.80;;;;;;;18.83;58.87;95914.28;4997570;28;20198;-76
2022/05/12 06:38:40;;;;;;;3.33;1.50;;;;;;;18.94;59.22;95911.13;5029703;28;20201;-76
2022/05/12 06:41:06;;;;;;;6.75;1.63;;;;;;;18.80;59.19;95917.25;5014192;28;20178;-77
2022/05/12 06:43:32;;;;;;;4.93;2.15;;;;;;;18.93;58.82;95925.28;5035979;28;20546;-76
2022/05/12 06:45:57;;;;;;;2.00;1.60;;;;;;;18.60;60.62;95927.59;5046106;28;20212;-76
2022/05/12 06:48:26;;;;;;;7.05;1.80;;;;;;;18.40;60.70;95932.66;5027754;28;20205;-77
2022/05/12 06:50:51;;;;;;;2.35;2.00;;;;;;;19.29;58.42;95934.03;5014304;28;20214;-75
2022/05/12 06:53:17;;;;;;;4.88;1.70;;;;;;;19.98;56.42;95939.34;5041943;28;20289;-75
2022/05/12 06:55:42;;;;;;;2.13;1.70;;;;;;;19.93;56.65;95941.72;5021960;28;20198;-76
2022/05/12 06:58:09;;;;;;;5.05;1.40;;;;;;;20.30;55.69;95943.06;5028828;28;20847;-74
2022/05/12 07:00:34;;;;;;;3.40;1.52;;;;;;;20.74;53.81;95939.16;5000685;28;20182;-75
2022/05/12 07:03:00;;;;;;;5.25;1.83;;;;;;;20.37;54.92;95941.28;5022965;28;20232;-76
2022/05/12 07:05:26;;;;;;;2.42;1.80;;;;;;;20.47;54.74;95949.66;5022147;28;20320;-75
2022/05/12 07:07:52;;;;;;;3.13;1.45;;;;;;;20.70;54.51;95951.13;5017633;28;20567;-75
2022/05/12 07:10:21;;;;;;;1.67;1.20;;;;;;;20.90;53.59;95950.13;5041922;28;20217;-75
2022/05/12 07:12:47;;;;;;;5.78;1.58;;;;;;;21.00;53.61;95954.19;5009045;28;20287;-75
2022/05/12 07:15:13;;;;;;;1.80;1.30;;;;;;;21.03;53.72;95959.09;5036560;28;20288;-75
2022/05/12 07:17:42;;;;;;;3.25;1.60;;;;;;;20.89;53.40;95959.06;5021658;28;20679;-75
2022/05/12 07:28:20;;;;;;;2.42;1.23;;;;;;;21.07;52.82;95955.84;5008183;28;20560;-75
2022/05/12 07:31:00;;;;;;;3.58;1.50;;;;;;;20.75;53.18;95961.88;5034181;28;20179;-75
2022/05/12 07:33:26;;;;;;;5.80;1.60;;;;;;;20.65;55.25;95955.16;5025350;28;20261;-77
2022/05/12 07:35:51;;;;;;;2.08;1.63;;;;;;;21.51;52.46;95954.41;5015054;28;20201;-76
2022/05/12 07:38:16;;;;;;;1.73;1.27;;;;;;;21.93;49.76;95960.22;5032592;28;20531;-78
2022/05/12 07:40:42;;;;;;;1.98;1.15;;;;;;;21.84;50.21;95950.91;5034629;28;20281;-76
2022/05/12 07:43:07;;;;;;;2.42;1.38;;;;;;;21.97;51.03;95958.78;5026446;28;20191;-76
2022/05/12 07:45:33;;;;;;;12.55;1.90;;;;;;;22.14;49.78;95956.50;5046960;28;20682;-76
2022/05/12 07:47:58;;;;;;;3.50;1.40;;;;;;;22.41;48.85;95959.84;5001131;28;20652;-75
2022/05/12 07:50:25;;;;;;;3.60;1.30;;;;;;;22.12;49.22;95954.06;5032350;28;20190;-73
2022/05/12 07:52:51;;;;;;;2.25;1.60;;;;;;;22.66;48.13;95960.72;5041802;28;20365;-75
2022/05/12 07:55:16;;;;;;;3.97;1.48;;;;;;;23.01;47.03;95962.97;5023422;28;20745;-75
2022/05/12 07:57:41;;;;;;;5.38;1.50;;;;;;;22.38;49.25;95957.63;5030741;28;20687;-75
2022/05/12 08:00:08;;;;;;;2.35;1.70;;;;;;;22.52;48.73;95953.88;5048308;28;20194;-76
2022/05/12 08:02:33;;;;;;;4.07;1.90;;;;;;;22.74;48.88;95960.47;5024673;28;20596;-75
2022/05/12 08:04:58;;;;;;;2.75;1.90;;;;;;;23.00;48.33;95966.66;5033787;28;20255;-74
2022/05/12 08:07:24;;;;;;;3.13;1.88;;;;;;;22.42;49.02;95964.09;5022938;28;20248;-77
2022/05/12 08:09:50;;;;;;;2.53;1.55;;;;;;;22.06;50.57;95970.75;5022904;28;20291;-76
2022/05/12 08:12:16;;;;;;;3.00;1.60;;;;;;;21.24;52.81;95972.09;5034049;28;20210;-75
2022/05/12 08:14:42;;;;;;;1.67;1.50;;;;;;;21.28;52.86;95970.69;5005984;28;20236;-75
2022/05/12 08:17:09;;;;;;;3.45;1.73;;;;;;;20.76;53.63;95971.41;5034291;28;20666;-75
2022/05/12 08:19:34;;;;;;;3.38;2.08;;;;;;;20.46;55.00;95971.78;5024210;28;20174;-75
2022/05/12 08:22:00;;;;;;;3.22;1.67;;;;;;;20.85;54.65;95978.16;5032197;28;20244;-76
2022/05/12 08:24:25;;;;;;;4.55;1.95;;;;;;;20.67;54.81;95978.72;5027939;28;20182;-76
2022/05/12 08:26:50;;;;;;;4.60;1.83;;;;;;;20.37;55.77;95981.66;5016661;28;20171;-74
2022/05/12 08:29:16;;;;;;;2.55;1.73;;;;;;;20.68;55.57;95987.47;5016600;28;20190;-75
2022/05/12 08:31:41;;;;;;;2.15;1.90;;;;;;;20.94;53.69;95987.53;5017369;28;20174;-75
2022/05/12 08:34:07;;;;;;;3.40;1.90;;;;;;;20.99;53.63;95982.44;5033400;28;20604;-75
2022/05/12 08:36:33;;;;;;;5.85;2.50;;;;;;;21.04;53.43;95987.94;5020473;28;20210;-76
2022/05/12 08:38:58;;;;;;;4.65;2.22;;;;;;;21.14;53.18;95990.97;5016519;28;20252;-76
2022/05/12 08:41:33;;;;;;;4.10;2.20;;;;;;;20.81;53.89;95992.75;5027427;28;20194;-75
2022/05/12 08:44:03;;;;;;;2.40;1.85;;;;;;;21.52;53.32;95995.66;5017794;28;20183;-75
2022/05/12 08:46:53;;;;;;;2.38;2.15;;;;;;;21.37;53.72;95998.50;5029729;28;20206;-76
2022/05/12 08:49:41;;;;;;;4.63;2.25;;;;;;;21.08;53.46;95999.69;5016822;28;20509;-76
2022/05/12 08:52:24;;;;;;;4.18;2.42;;;;;;;21.40;53.60;95998.13;5030812;28;20237;-75
2022/05/12 08:54:57;;;;;;;2.20;2.00;;;;;;;21.78;52.11;95990.34;5039484;28;20210;-75
2022/05/12 08:57:29;;;;;;;2.97;2.00;;;;;;;22.16;50.17;95996.78;5017032;28;20652;-76
2022/05/12 08:59:55;;;;;;;4.18;2.40;;;;;;;22.01;51.97;95991.72;5016471;28;20186;-76
2022/05/12 09:02:35;;;;;;;3.65;2.08;;;;;;;22.49;49.52;95996.66;5030236;28;20163;-76
2022/05/12 09:05:12;;;;;;;2.33;2.05;;;;;;;22.61;49.61;95992.28;5023509;28;20258;-76
2022/05/12 09:07:46;;;;;;;2.30;2.03;;;;;;;22.34;50.85;95997.72;5018402;28;20182;-76
2022/05/12 09:10:42;;;;;;;4.15;2.15;;;;;;;22.15;51.24;95998.59;4999574;28;20189;-75
2022/05/12 09:13:37;;;;;;;6.22;2.10;;;;;;;22.22;50.79;95986.19;5031040;28;20227;-76
2022/05/12 09:16:08;;;;;;;4.80;2.42;;;;;;;21.55;52.35;95984.69;5020720;28;20227;-76
2022/05/12 09:18:36;;;;;;;5.55;2.17;;;;;;;21.83;52.11;95996.84;5013194;28;20191;-76
2022/05/12 09:21:05;;;;;;;3.30;2.80;;;;;;;21.47;52.10;96004.22;5013267;28;20269;-74
2022/05/12 09:23:30;;;;;;;2.55;2.35;;;;;;;21.78;51.10;96006.19;5010856;28;20179;-75
2022/05/12 09:25:55;;;;;;;5.45;2.80;;;;;;;21.54;51.53;96006.03;5030686;28;20209;-75
2022/05/12 09:28:34;;;;;;;2.88;2.40;;;;;;;22.06;50.13;96003.28;4996680;28;20309;-76
2022/05/12 09:31:17;;;;;;;4.18;2.63;;;;;;;22.29;49.76;96002.84;5037563;28;20178;-76
2022/05/12 09:33:48;;;;;;;2.72;2.50;;;;;;;22.22;49.16;95995.94;5035915;28;20206;-75
2022/05/12 09:36:19;;;;;;;8.40;3.00;;;;;;;21.81;50.64;95996.22;5033079;28;20198;-76
2022/05/12 09:38:46;;;;;;;7.03;2.78;;;;;;;22.09;50.01;96002.09;5015088;28;20650;-76
2022/05/12 09:41:21;;;;;;;5.47;2.80;;;;;;;21.61;51.55;95997.06;5024743;28;20190;-76
2022/05/12 09:43:49;;;;;;;3.33;2.63;;;;;;;21.45;51.75;96003.59;5017509;28;20186;-76
2022/05/12 09:46:17;;;;;;;3.22;2.42;;;;;;;21.83;51.26;95994.22;5021472;28;20579;-76
2022/05/12 09:48:44;;;;;;;4.25;2.60;;;;;;;21.93;50.83;95992.75;5012730;28;20221;-76
2022/05/12 09:51:25;;;;;;;3.03;2.70;;;;;;;21.50;51.26;96000.34;4996520;28;20187;-73
2022/05/12 09:53:53;;;;;;;4.90;3.30;;;;;;;21.36;51.23;95988.97;5027734;28;20622;-75
2022/05/12 09:56:31;;;;;;;4.10;2.95;;;;;;;21.80;50.21;95986.69;4997137;28;20205;-75
2022/05/12 09:59:03;;;;;;;4.20;3.00;;;;;;;21.75;51.38;95979.38;5026054;28;20232;-76
2022/05/12 10:01:30;;;;;;;3.83;2.53;;;;;;;21.68;51.73;95984.69;5010045;28;20187;-75
2022/05/12 10:10:00;;;;;;;2.63;2.42;;;;;;;22.02;50.94;95972.19;5029868;28;20193;-75
2022/05/12 10:12:31;;;;;;;3.63;2.55;;;;;;;22.10;51.33;95966.69;5011996;28;20194;-75
2022/05/12 10:15:18;;;;;;;5.00;3.28;;;;;;;22.39;49.89;95975.94;5011646;28;20205;-75
2022/05/12 10:17:46;;;;;;;3.92;3.33;;;;;;;22.03;49.69;95966.69;5011550;28;20274;-75
2022/05/12 10:20:21;;;;;;;6.18;3.15;;;;;;;22.10;49.26;95956.13;5016802;28;20196;-75
2022/05/12 10:22:54;;;;;;;4.43;3.03;;;;;;;22.35;50.00;95958.84;5043176;28;20181;-75
2022/05/12 10:25:27;;;;;;;5.20;2.22;;;;;;;22.44;50.41;95960.25;5005761;28;20296;-75
2022/05/12 10:28:13;;;;;;;7.45;2.40;;;;;;;22.08;50.11;95947.56;5029471;28;20762;-75
2022/05/12 10:30:49;;;;;;;6.00;2.80;;;;;;;22.28;49.59;95952.78;5013641;28;20185;-75
2022/05/12 10:33:42;;;;;;;3.90;2.47;;;;;;;22.10;50.53;95958.78;5025948;28;20206;-75
2022/05/12 10:36:26;;;;;;;5.90;2.88;;;;;;;21.72;50.94;95945.41;5019367;28;20201;-75
2022/05/12 10:39:34;;;;;;;5.80;3.00;;;;;;;22.23;47.90;95945.47;5038955;28;20204;-78
2022/05/12 10:42:31;;;;;;;4.28;2.67;;;;;;;22.21;48.94;95952.81;5010758;28;20272;-77
2022/05/12 10:45:37;;;;;;;3.88;2.55;;;;;;;22.48;47.99;95957.97;5041245;28;20206;-76
2022/05/12 10:48:23;;;;;;;3.78;2.75;;;;;;;23.12;47.34;95954.31;5030622;28;20185;-77
2022/05/12 10:50:57;;;;;;;5.97;2.70;;;;;;;22.91;48.07;95947.56;5031996;28;20655;-76
2022/05/12 10:53:48;;;;;;;3.90;2.30;;;;;;;22.87;47.47;95939.22;5050736;28;20202;-76
2022/05/12 10:56:50;;;;;;;6.68;3.25;;;;;;;23.38;48.01;95943.50;5035858;28;20198;-77
2022/05/12 10:59:30;;;;;;;4.68;2.67;;;;;;;23.25;45.78;95940.97;5049063;28;20186;-77
2022/05/12 11:02:00;;;;;;;4.90;2.67;;;;;;;23.31;46.98;95941.94;5037696;28;20186;-77
2022/05/12 11:04:29;;;;;;;3.35;2.60;;;;;;;22.91;48.01;95934.31;5018650;28;20243;-76
2022/05/12 11:06:58;;;;;;;5.63;2.78;;;;;;;22.86;47.32;95934.13;5033059;28;20174;-76
2022/05/12 11:09:30;;;;;;;3.58;3.00;;;;;;;22.67;47.26;95933.22;5016827;28;20178;-77
2022/05/12 11:12:00;;;;;;;3.35;2.92;;;;;;;22.78;46.36;95921.94;4998676;28;20186;-77
2022/05/12 11:14:36;;;;;;;7.57;3.17;;;;;;;22.65;47.64;95934.47;5019137;28;20178;-77
2022/05/12 11:17:09;;;;;;;6.18;3.72;;;;;;;22.41;47.09;95928.09;5023684;28;20236;-77
2022/05/12 11:19:36;;;;;;;3.72;3.33;;;;;;;22.88;46.29;95924.13;5017124;28;20193;-77
2022/05/12 11:22:13;;;;;;;4.28;2.80;;;;;;;23.23;46.41;95915.72;5027603;28;20175;-77
2022/05/12 11:24:49;;;;;;;8.45;2.90;;;;;;;23.55;46.20;95919.09;5036281;28;20563;-73
2022/05/12 11:27:33;;;;;;;5.13;2.95;;;;;;;23.53;47.01;95924.59;4995852;28;20179;-77
2022/05/12 11:30:04;;;;;;;5.05;2.97;;;;;;;23.49;45.89;95912.81;5044830;28;20178;-75
2022/05/12 11:33:06;;;;;;;6.03;3.20;;;;;;;23.48;47.09;95918.34;5035394;28;20686;-76
2022/05/12 11:35:35;;;;;;;4.63;3.25;;;;;;;23.32;46.43;95923.19;5047968;28;20709;-76
2022/05/12 11:38:07;;;;;;;2.70;2.45;;;;;;;23.41;45.57;95911.28;5014123;28;20233;-76
2022/05/12 11:40:44;;;;;;;3.00;2.67;;;;;;;23.48;46.48;95913.03;5021124;28;20214;-76
2022/05/12 11:46:41;;;;;;;6.72;3.05;;;;;;;23.38;46.82;95918.84;5015605;28;20208;-76
2022/05/12 11:49:29;;;;;;;6.50;3.28;;;;;;;23.77;46.41;95912.38;5012323;28;20257;-76
2022/05/12 11:52:31;;;;;;;4.13;2.90;;;;;;;23.49;46.83;95909.34;5014654;28;20206;-76
2022/05/12 11:55:04;;;;;;;4.80;2.55;;;;;;;24.17;45.57;95909.22;5033570;28;20194;-76
2022/05/12 11:57:36;;;;;;;8.20;3.17;;;;;;;23.70;46.22;95920.38;5016415;28;20647;-76
2022/05/12 12:00:09;;;;;;;5.07;2.97;;;;;;;23.76;46.08;95916.03;5016415;28;20186;-76
2022/05/12 12:02:35;;;;;;;4.20;3.10;;;;;;;24.01;45.59;95911.44;5017058;28;20205;-76
2022/05/12 12:05:13;;;;;;;3.00;2.80;;;;;;;23.34;47.47;95899.94;5018961;28;20297;-79
2022/05/12 12:07:38;;;;;;;5.35;2.80;;;;;;;23.82;46.14;95899.22;5021895;28;20663;-77